createdAt,value
2023-11-29T00:01:35.056Z,6.28
2023-11-29T00:04:01.762Z,4.95
2023-11-29T00:06:28.569Z,5.18
2023-11-29T00:08:58.342Z,6.18
2023-11-29T00:11:25.721Z,7.00
2023-11-29T00:13:52.425Z,6.13
2023-11-29T00:16:19.011Z,6.40
2023-11-29T00:18:45.831Z,5.75
2023-11-29T00:21:12.420Z,5.95
2023-11-29T00:23:38.910Z,4.82
2023-11-29T00:26:05.632Z,5.93
2023-11-29T00:28:32.727Z,5.57
2023-11-29T00:30:59.334Z,5.10
2023-11-29T00:33:25.815Z,4.82
2023-11-29T00:35:52.301Z,6.55
2023-11-29T00:40:45.262Z,4.50
2023-11-29T00:45:42.446Z,5.85
2023-11-29T00:50:35.649Z,6.07
2023-11-29T00:53:02.156Z,6.28
2023-11-29T00:58:03.088Z,6.43
2023-11-29T01:00:30.945Z,7.47
2023-11-29T01:02:59.551Z,6.28
2023-11-29T01:05:26.494Z,6.60
2023-11-29T01:07:52.996Z,6.90
2023-11-29T01:10:20.695Z,7.85
2023-11-29T01:12:49.376Z,7.20
2023-11-29T01:15:15.992Z,8.43
2023-11-29T01:17:42.697Z,7.35
2023-11-29T01:20:09.574Z,9.00
2023-11-29T01:22:37.042Z,9.30
2023-11-29T01:25:03.835Z,8.30
2023-11-29T01:27:31.782Z,8.32
2023-11-29T01:29:59.127Z,8.15
2023-11-29T01:32:25.898Z,8.63
2023-11-29T01:34:52.349Z,7.75
2023-11-29T01:39:47.905Z,7.32
2023-11-29T01:42:14.386Z,7.65
2023-11-29T01:47:10.730Z,7.57
2023-11-29T01:49:37.575Z,8.68
2023-11-29T01:52:04.387Z,8.43
2023-11-29T01:54:31.327Z,8.43
2023-11-29T01:56:57.763Z,7.32
2023-11-29T02:01:50.745Z,7.00
2023-11-29T02:04:17.878Z,8.02
2023-11-29T02:06:44.521Z,6.22
2023-11-29T02:09:11.022Z,7.65
2023-11-29T02:14:07.825Z,7.93
2023-11-29T02:16:35.467Z,7.05
2023-11-29T02:19:01.916Z,6.53
2023-11-29T02:24:01.914Z,5.45
2023-11-29T02:26:29.426Z,5.88
2023-11-29T02:28:55.991Z,7.30
2023-11-29T02:31:22.547Z,7.22
2023-11-29T02:33:49.141Z,5.13
2023-11-29T02:36:15.587Z,6.18
2023-11-29T02:41:08.606Z,6.45
2023-11-29T02:43:35.070Z,4.85
2023-11-29T02:48:27.929Z,5.60
2023-11-29T02:50:54.521Z,5.80
2023-11-29T02:53:20.998Z,5.97
2023-11-29T02:58:13.787Z,4.60
2023-11-29T03:03:06.656Z,4.85
2023-11-29T03:05:33.191Z,5.18
2023-11-29T03:07:59.702Z,4.97
2023-11-29T03:10:26.245Z,5.00
2023-11-29T03:12:52.642Z,4.85
2023-11-29T03:15:19.199Z,4.95
2023-11-29T03:17:45.758Z,4.72
2023-11-29T03:20:12.939Z,4.55
2023-11-29T03:22:39.436Z,4.68
2023-11-29T03:27:32.483Z,4.65
2023-11-29T03:32:27.453Z,4.60
2023-11-29T03:34:55.700Z,4.82
2023-11-29T03:37:22.240Z,5.72
2023-11-29T03:39:48.764Z,5.18
2023-11-29T03:42:15.247Z,4.97
2023-11-29T03:47:08.008Z,4.45
2023-11-29T03:52:00.826Z,3.80
2023-11-29T03:54:27.265Z,3.08
2023-11-29T03:59:20.126Z,3.00
2023-11-29T04:04:13.219Z,4.03
2023-11-29T04:06:39.748Z,4.47
2023-11-29T04:09:06.256Z,4.38
2023-11-29T04:11:32.820Z,4.05
2023-11-29T04:13:59.334Z,4.43
2023-11-29T04:18:54.388Z,4.65
2023-11-29T04:21:31.410Z,4.55
2023-11-29T04:23:57.980Z,4.95
2023-11-29T04:26:28.552Z,5.55
2023-11-29T04:28:55.487Z,5.28
2023-11-29T04:31:22.177Z,5.72
2023-11-29T04:33:48.604Z,5.15
2023-11-29T04:36:15.041Z,5.85
2023-11-29T04:41:08.804Z,4.55
2023-11-29T04:43:35.779Z,5.40
2023-11-29T04:46:02.282Z,5.10
2023-11-29T04:50:55.203Z,4.18
2023-11-29T04:55:49.532Z,4.95
2023-11-29T04:58:16.278Z,5.10
2023-11-29T05:00:42.731Z,5.43
2023-11-29T05:05:35.774Z,5.30
2023-11-29T05:08:02.269Z,5.40
2023-11-29T05:12:55.104Z,4.78
2023-11-29T05:17:58.853Z,4.97
2023-11-29T05:20:25.515Z,5.25
2023-11-29T05:22:52.564Z,4.53
2023-11-29T05:25:20.460Z,4.88
2023-11-29T05:27:47.877Z,5.13
2023-11-29T05:30:14.913Z,5.10
2023-11-29T05:32:41.477Z,4.90
2023-11-29T05:35:08.172Z,5.25
2023-11-29T05:37:34.583Z,4.47
2023-11-29T05:42:27.478Z,3.80
2023-11-29T05:47:22.758Z,3.10
2023-11-29T05:49:50.264Z,3.08
2023-11-29T05:52:17.355Z,3.00
2023-11-29T05:54:43.725Z,2.55
2023-11-29T05:59:38.277Z,2.00
2023-11-29T06:02:06.437Z,1.98
2023-11-29T06:04:33.237Z,2.45
2023-11-29T06:06:59.845Z,2.13
2023-11-29T06:09:29.864Z,2.20
2023-11-29T06:11:56.827Z,2.72
2023-11-29T06:14:23.575Z,2.60
2023-11-29T06:16:50.570Z,2.42
2023-11-29T06:19:17.082Z,1.92
2023-11-29T06:21:44.036Z,2.63
2023-11-29T06:24:11.168Z,2.40
2023-11-29T06:26:42.059Z,2.42
2023-11-29T06:29:11.875Z,2.53
2023-11-29T06:31:38.530Z,2.45
2023-11-29T06:34:06.922Z,2.20
2023-11-29T06:36:35.883Z,2.45
2023-11-29T06:39:04.163Z,1.77
2023-11-29T06:41:30.874Z,2.33
2023-11-29T06:43:57.437Z,1.80
2023-11-29T06:46:23.948Z,1.73
2023-11-29T06:48:51.506Z,1.73
2023-11-29T06:51:17.983Z,1.77
2023-11-29T06:56:11.545Z,1.30
2023-11-29T06:58:39.145Z,1.13
2023-11-29T07:01:08.609Z,1.10
2023-11-29T07:03:35.077Z,1.30
2023-11-29T07:06:01.638Z,1.30
2023-11-29T07:08:28.236Z,1.20
2023-11-29T07:10:54.770Z,1.48
2023-11-29T07:13:21.255Z,1.40
2023-11-29T07:15:47.785Z,1.30
2023-11-29T07:18:14.350Z,1.10
2023-11-29T07:20:46.115Z,1.60
2023-11-29T07:25:39.616Z,1.20
2023-11-29T07:30:33.233Z,1.38
2023-11-29T07:32:59.716Z,1.20
2023-11-29T07:35:27.116Z,1.33
2023-11-29T07:37:53.630Z,1.20
2023-11-29T07:40:22.306Z,1.23
2023-11-29T07:42:50.207Z,1.40
2023-11-29T07:45:16.663Z,1.60
2023-11-29T07:50:14.385Z,1.55
2023-11-29T07:52:44.089Z,2.08
2023-11-29T07:55:11.635Z,1.75
2023-11-29T07:57:38.105Z,2.03
2023-11-29T08:02:33.694Z,1.80
2023-11-29T08:05:01.170Z,2.47
2023-11-29T08:07:27.604Z,2.17
2023-11-29T08:09:53.994Z,1.75
2023-11-29T08:14:47.625Z,2.47
2023-11-29T08:17:14.558Z,2.35
2023-11-29T08:19:41.024Z,2.50
2023-11-29T08:24:34.211Z,2.20
2023-11-29T08:27:00.696Z,2.50
2023-11-29T08:29:27.178Z,2.40
2023-11-29T08:34:20.031Z,2.33
2023-11-29T08:39:15.991Z,2.63
2023-11-29T08:41:44.848Z,2.28
2023-11-29T08:44:14.131Z,2.72
2023-11-29T08:46:41.607Z,2.47
2023-11-29T08:49:09.252Z,2.63
2023-11-29T08:51:35.822Z,3.00
2023-11-29T08:54:02.417Z,2.40
2023-11-29T08:56:28.967Z,2.30
2023-11-29T08:58:57.004Z,2.50
2023-11-29T09:01:23.519Z,3.15
2023-11-29T09:03:51.346Z,2.78
2023-11-29T09:06:18.297Z,3.10
2023-11-29T09:08:45.359Z,2.90
2023-11-29T09:11:11.975Z,2.50
2023-11-29T09:13:39.396Z,2.53
2023-11-29T09:16:07.888Z,2.70
2023-11-29T09:18:34.971Z,2.35
2023-11-29T09:21:01.955Z,2.67
2023-11-29T09:23:28.600Z,2.50
2023-11-29T09:25:55.198Z,2.30
2023-11-29T09:28:21.631Z,3.15
2023-11-29T09:33:14.688Z,2.65
2023-11-29T09:35:43.756Z,2.30
2023-11-29T09:38:11.551Z,2.40
2023-11-29T09:40:38.098Z,2.63
2023-11-29T09:43:04.660Z,2.30
2023-11-29T09:45:31.404Z,2.55
2023-11-29T09:47:58.491Z,2.30
2023-11-29T09:50:26.607Z,2.20
2023-11-29T09:52:53.696Z,2.78
2023-11-29T09:55:20.108Z,2.25
2023-11-29T10:00:15.746Z,2.08
2023-11-29T10:02:43.165Z,2.60
2023-11-29T10:05:11.869Z,2.45
2023-11-29T10:07:38.412Z,2.40
2023-11-29T10:10:08.368Z,2.40
2023-11-29T10:12:45.468Z,2.20
2023-11-29T10:15:12.927Z,2.30
2023-11-29T10:17:44.866Z,2.13
2023-11-29T10:20:13.616Z,2.10
2023-11-29T10:22:40.045Z,2.13
2023-11-29T10:25:20.829Z,1.88
2023-11-29T10:27:48.225Z,1.95
2023-11-29T10:30:14.923Z,2.00
2023-11-29T10:32:42.737Z,2.20
2023-11-29T10:35:13.440Z,2.30
2023-11-29T10:38:00.348Z,2.10
2023-11-29T10:40:27.970Z,2.20
2023-11-29T10:42:55.542Z,2.75
2023-11-29T10:45:22.770Z,2.72
2023-11-29T10:47:58.212Z,2.33
2023-11-29T10:50:26.412Z,2.17
2023-11-29T10:52:52.932Z,2.03
2023-11-29T10:55:22.573Z,2.20
2023-11-29T10:57:59.150Z,2.38
2023-11-29T11:00:29.718Z,1.88
2023-11-29T11:02:56.983Z,2.15
2023-11-29T11:05:25.498Z,2.22
2023-11-29T11:07:55.889Z,2.05
2023-11-29T11:10:24.313Z,2.40
2023-11-29T11:12:53.064Z,2.10
2023-11-29T11:15:25.672Z,2.15
2023-11-29T11:18:09.019Z,1.90
2023-11-29T11:20:43.166Z,2.00
2023-11-29T11:23:18.592Z,1.85
2023-11-29T11:25:45.049Z,1.88
2023-11-29T11:28:35.942Z,1.80
2023-11-29T11:31:07.564Z,1.80
2023-11-29T11:33:52.186Z,2.00
2023-11-29T11:36:23.174Z,1.75
2023-11-29T11:38:51.370Z,1.70
2023-11-29T11:41:17.918Z,1.67
2023-11-29T11:43:44.586Z,2.08
2023-11-29T11:46:11.370Z,1.50
2023-11-29T11:48:38.360Z,1.90
2023-11-29T11:51:07.485Z,2.05
2023-11-29T11:53:41.871Z,1.65
2023-11-29T11:56:23.050Z,1.60
2023-11-29T11:58:50.742Z,1.70
2023-11-29T12:01:17.199Z,1.60
2023-11-29T12:03:43.817Z,1.88
2023-11-29T12:06:10.939Z,1.80
2023-11-29T12:08:38.436Z,1.75
2023-11-29T12:11:08.312Z,1.50
2023-11-29T12:13:35.525Z,1.80
2023-11-29T12:16:13.149Z,1.92
2023-11-29T12:18:40.965Z,1.60
2023-11-29T12:21:08.301Z,1.65
2023-11-29T12:23:36.898Z,1.90
2023-11-29T12:26:04.318Z,1.67
2023-11-29T12:28:33.542Z,1.58
2023-11-29T12:31:00.429Z,1.70
2023-11-29T12:33:27.178Z,1.60
2023-11-29T12:35:53.689Z,2.00
2023-11-29T12:38:20.503Z,1.95
2023-11-29T12:40:47.186Z,1.88
2023-11-29T12:43:13.609Z,1.55
2023-11-29T12:45:40.039Z,2.00
2023-11-29T12:48:06.618Z,2.50
2023-11-29T12:50:33.886Z,2.15
2023-11-29T12:53:00.538Z,2.33
2023-11-29T12:55:26.996Z,2.47
2023-11-29T12:57:53.900Z,2.25
2023-11-29T13:00:21.176Z,2.20
2023-11-29T13:02:48.204Z,2.42
2023-11-29T13:05:14.753Z,2.60
2023-11-29T13:07:41.260Z,2.50
2023-11-29T13:10:08.168Z,2.45
2023-11-29T13:12:34.633Z,2.30
2023-11-29T13:15:01.270Z,2.45
2023-11-29T13:17:27.796Z,2.40
2023-11-29T13:19:54.307Z,2.15
2023-11-29T13:22:20.738Z,1.80
2023-11-29T13:24:47.176Z,1.60
2023-11-29T13:27:15.348Z,2.13
2023-11-29T13:29:43.295Z,1.75
2023-11-29T13:32:11.804Z,1.75
2023-11-29T13:34:38.380Z,2.10
2023-11-29T13:37:05.024Z,1.58
2023-11-29T13:39:32.351Z,1.70
2023-11-29T13:41:59.175Z,1.98
2023-11-29T13:44:28.493Z,2.40
2023-11-29T13:46:55.720Z,1.90
2023-11-29T13:49:22.274Z,1.80
2023-11-29T13:51:57.828Z,2.35
2023-11-29T13:54:31.215Z,2.25
2023-11-29T13:56:57.693Z,2.40
2023-11-29T13:59:24.423Z,2.22
2023-11-29T14:01:51.053Z,2.00
2023-11-29T14:04:17.798Z,2.42
2023-11-29T14:06:44.261Z,2.25
2023-11-29T14:09:10.704Z,2.67
2023-11-29T14:11:39.824Z,2.30
2023-11-29T14:14:06.357Z,2.20
2023-11-29T14:16:32.936Z,1.83
2023-11-29T14:18:59.361Z,2.50
2023-11-29T14:21:26.206Z,2.25
2023-11-29T14:23:52.645Z,2.67
2023-11-29T14:26:19.058Z,2.10
2023-11-29T14:28:45.478Z,2.35
2023-11-29T14:31:12.055Z,2.40
2023-11-29T14:33:39.653Z,2.08
2023-11-29T14:36:06.384Z,2.28
2023-11-29T14:38:32.819Z,2.00
2023-11-29T14:41:06.112Z,2.03
2023-11-29T14:43:38.039Z,2.15
2023-11-29T14:46:04.703Z,2.15
2023-11-29T14:48:31.304Z,1.92
2023-11-29T14:50:57.846Z,2.35
2023-11-29T14:53:24.732Z,2.00
2023-11-29T14:55:51.884Z,2.42
2023-11-29T14:58:18.317Z,2.55
2023-11-29T15:00:44.886Z,2.00
2023-11-29T15:03:11.352Z,1.80
2023-11-29T15:05:37.893Z,1.90
2023-11-29T15:08:04.566Z,2.30
2023-11-29T15:10:31.044Z,1.67
2023-11-29T15:12:57.541Z,1.98
2023-11-29T15:15:24.476Z,1.90
2023-11-29T15:17:52.015Z,1.92
2023-11-29T15:20:19.422Z,2.13
2023-11-29T15:22:45.952Z,2.30
2023-11-29T15:25:17.991Z,2.05
2023-11-29T15:27:46.815Z,2.38
2023-11-29T15:30:13.777Z,2.63
2023-11-29T15:32:40.674Z,1.95
2023-11-29T15:35:08.776Z,2.25
2023-11-29T15:37:36.988Z,2.50
2023-11-29T15:40:04.969Z,2.80
2023-11-29T15:42:31.471Z,3.30
2023-11-29T15:44:57.874Z,2.90
2023-11-29T15:49:50.733Z,2.17
2023-11-29T15:52:17.238Z,2.25
2023-11-29T15:54:43.681Z,2.25
2023-11-29T15:57:10.337Z,2.03
2023-11-29T15:59:37.029Z,2.33
2023-11-29T16:02:03.762Z,2.15
2023-11-29T16:04:30.540Z,2.30
2023-11-29T16:06:57.067Z,2.60
2023-11-29T16:09:23.460Z,2.70
2023-11-29T16:14:19.062Z,2.60
2023-11-29T16:19:11.907Z,2.40
2023-11-29T16:21:38.359Z,2.50
2023-11-29T16:26:31.279Z,2.38
2023-11-29T16:31:25.570Z,2.00
2023-11-29T16:33:52.501Z,2.30
2023-11-29T16:36:19.130Z,2.22
2023-11-29T16:38:46.771Z,2.28
2023-11-29T16:41:13.765Z,2.35
2023-11-29T16:43:40.306Z,2.33
2023-11-29T16:46:07.225Z,2.25
2023-11-29T16:48:33.877Z,2.33
2023-11-29T16:51:00.500Z,2.47
2023-11-29T16:53:28.131Z,2.40
2023-11-29T16:55:55.665Z,2.28
2023-11-29T16:58:22.393Z,2.95
2023-11-29T17:00:48.995Z,2.75
2023-11-29T17:03:17.587Z,2.80
2023-11-29T17:05:45.235Z,2.50
2023-11-29T17:08:12.862Z,3.38
2023-11-29T17:10:39.837Z,2.95
2023-11-29T17:13:06.329Z,3.03
2023-11-29T17:15:32.808Z,2.63
2023-11-29T17:20:26.057Z,3.05
2023-11-29T17:25:18.858Z,2.97
2023-11-29T17:30:12.567Z,3.20
2023-11-29T17:32:39.132Z,3.28
2023-11-29T17:35:06.228Z,3.30
2023-11-29T17:37:32.625Z,4.18
2023-11-29T17:39:59.139Z,4.90
2023-11-29T17:42:25.552Z,4.10
2023-11-29T17:47:21.238Z,3.38
2023-11-29T17:49:47.700Z,3.85
2023-11-29T17:54:43.387Z,4.13
2023-11-29T17:57:10.749Z,3.58
2023-11-29T17:59:37.443Z,3.67
2023-11-29T18:02:04.210Z,3.35
2023-11-29T18:04:30.731Z,3.85
2023-11-29T18:09:23.574Z,4.00
2023-11-29T18:11:50.123Z,4.07
2023-11-29T18:14:16.635Z,3.75
2023-11-29T18:19:13.002Z,3.50
2023-11-29T18:24:06.105Z,3.28
2023-11-29T18:26:32.574Z,4.10
2023-11-29T18:31:25.391Z,3.72
2023-11-29T18:33:51.913Z,3.92
2023-11-29T18:38:44.871Z,3.97
2023-11-29T18:43:37.809Z,4.25
2023-11-29T18:48:35.368Z,3.85
2023-11-29T18:51:03.804Z,3.83
2023-11-29T18:53:31.480Z,4.72
2023-11-29T18:55:59.496Z,4.40
2023-11-29T18:58:25.993Z,4.35
2023-11-29T19:00:52.455Z,4.60
2023-11-29T19:05:46.691Z,4.40
2023-11-29T19:08:13.607Z,4.28
2023-11-29T19:10:42.105Z,4.72
2023-11-29T19:13:08.747Z,4.60
2023-11-29T19:18:01.776Z,4.38
2023-11-29T19:20:28.289Z,4.95
2023-11-29T19:25:21.140Z,5.45
2023-11-29T19:27:47.677Z,5.43
2023-11-29T19:30:14.547Z,5.55
2023-11-29T19:32:41.191Z,5.00
2023-11-29T19:35:18.261Z,5.43
2023-11-29T19:37:51.728Z,5.55
2023-11-29T19:42:44.512Z,5.05
2023-11-29T19:47:37.540Z,5.45
2023-11-29T19:50:04.432Z,5.47
2023-11-29T19:52:32.380Z,5.18
2023-11-29T19:55:03.004Z,5.78
2023-11-29T19:57:29.662Z,5.55
2023-11-29T19:59:56.430Z,5.65
2023-11-29T20:02:23.896Z,6.60
2023-11-29T20:04:51.416Z,6.05
2023-11-29T20:07:17.832Z,5.80
2023-11-29T20:12:10.774Z,6.03
2023-11-29T20:14:41.719Z,6.03
2023-11-29T20:17:10.305Z,6.03
2023-11-29T20:19:36.898Z,6.13
2023-11-29T20:24:30.372Z,5.57
2023-11-29T20:26:56.844Z,6.20
2023-11-29T20:31:49.682Z,6.45
2023-11-29T20:37:01.560Z,7.13
2023-11-29T20:41:54.676Z,6.65
2023-11-29T20:44:27.764Z,7.68
2023-11-29T20:46:54.985Z,9.82
2023-11-29T20:49:21.892Z,8.70
2023-11-29T20:51:49.077Z,9.40
2023-11-29T20:54:16.928Z,9.30
2023-11-29T20:56:43.841Z,8.85
2023-11-29T20:59:13.428Z,9.57
2023-11-29T21:01:40.911Z,8.70
2023-11-29T21:04:10.006Z,8.57
2023-11-29T21:06:38.057Z,8.13
2023-11-29T21:09:06.084Z,8.60
2023-11-29T21:11:32.558Z,8.38
2023-11-29T21:16:25.402Z,8.38
2023-11-29T21:21:18.695Z,8.75
2023-11-29T21:23:45.191Z,8.52
2023-11-29T21:28:38.911Z,9.55
2023-11-29T21:31:06.434Z,9.32
2023-11-29T21:33:33.262Z,9.43
2023-11-29T21:35:59.799Z,9.27
2023-11-29T21:40:52.992Z,9.38
2023-11-29T21:43:20.853Z,9.25
2023-11-29T21:45:47.541Z,9.60
2023-11-29T21:50:40.420Z,9.27
2023-11-29T21:53:08.667Z,9.68
2023-11-29T21:55:35.118Z,9.52
2023-11-29T22:00:28.413Z,8.63
2023-11-29T22:02:54.925Z,8.55
2023-11-29T22:05:21.481Z,10.20
2023-11-29T22:10:14.320Z,11.73
2023-11-29T22:15:08.724Z,9.40
2023-11-29T22:17:35.324Z,9.70
2023-11-29T22:20:01.840Z,9.73
2023-11-29T22:24:55.214Z,9.57
2023-11-29T22:27:21.700Z,9.85
2023-11-29T22:32:14.773Z,9.07
2023-11-29T22:37:08.254Z,9.65
2023-11-29T22:39:35.906Z,9.52
2023-11-29T22:42:02.466Z,9.35
2023-11-29T22:44:28.905Z,8.88
2023-11-29T22:46:55.288Z,8.60
2023-11-29T22:49:21.963Z,9.98
2023-11-29T22:51:48.540Z,9.88
2023-11-29T22:56:41.441Z,9.88
2023-11-29T23:01:34.764Z,8.68
2023-11-29T23:04:04.933Z,8.95
2023-11-29T23:06:32.530Z,9.30
2023-11-29T23:08:59.302Z,9.20
2023-11-29T23:11:25.736Z,9.15
2023-11-29T23:13:52.885Z,9.70
2023-11-29T23:16:19.860Z,8.80
2023-11-29T23:18:48.380Z,9.98
2023-11-29T23:21:15.022Z,10.13
2023-11-29T23:23:41.710Z,9.15
2023-11-29T23:26:08.215Z,9.65
2023-11-29T23:31:02.093Z,9.55
2023-11-29T23:33:29.533Z,8.90
2023-11-29T23:35:57.397Z,9.77
2023-11-29T23:38:24.098Z,8.93
2023-11-29T23:40:50.488Z,9.80
2023-11-29T23:43:16.898Z,9.77
2023-11-29T23:48:09.747Z,9.57
2023-11-29T23:50:36.173Z,10.10
2023-11-29T23:55:29.139Z,9.60
2023-11-29T23:57:55.611Z,9.23
